sensor_id;sensor_type;location;lat;lon;timestamp;temperature;humidity
22319;DHT22;11327;52.334;9.506;2023-02-01T00:03:15;5.40;99.90
22319;DHT22;11327;52.334;9.506;2023-02-01T00:06:36;5.40;99.90
22319;DHT22;11327;52.334;9.506;2023-02-01T00:09:56;5.50;99.90
22319;DHT22;11327;52.334;9.506;2023-02-01T00:13:17;5.50;99.90
22319;DHT22;11327;52.334;9.506;2023-02-01T00:16:38;5.40;99.90
22319;DHT22;11327;52.334;9.506;2023-02-01T00:19:59;5.40;99.90
22319;DHT22;11327;52.334;9.506;2023-02-01T00:23:19;5.40;99.90
22319;DHT22;11327;52.334;9.506;2023-02-01T00:26:42;5.30;99.90
22319;DHT22;11327;52.334;9.506;2023-02-01T00:30:04;5.30;99.90
22319;DHT22;11327;52.334;9.506;2023-02-01T00:33:26;5.30;99.90
22319;DHT22;11327;52.334;9.506;2023-02-01T00:36:47;5.30;99.90
22319;DHT22;11327;52.334;9.506;2023-02-01T00:40:08;5.30;99.90
22319;DHT22;11327;52.334;9.506;2023-02-01T00:43:30;5.30;99.90
22319;DHT22;11327;52.334;9.506;2023-02-01T00:46:51;5.30;99.90
22319;DHT22;11327;52.334;9.506;2023-02-01T00:50:12;5.30;99.90
22319;DHT22;11327;52.334;9.506;2023-02-01T00:53:33;5.30;99.90
22319;DHT22;11327;52.334;9.506;2023-02-01T00:56:54;5.30;99.90
22319;DHT22;11327;52.334;9.506;2023-02-01T01:00:16;5.30;99.90
22319;DHT22;11327;52.334;9.506;2023-02-01T01:03:40;5.30;99.90
22319;DHT22;11327;52.334;9.506;2023-02-01T01:07:01;5.30;99.90
22319;DHT22;11327;52.334;9.506;2023-02-01T01:10:22;5.30;99.90
22319;DHT22;11327;52.334;9.506;2023-02-01T01:13:43;5.20;99.90
22319;DHT22;11327;52.334;9.506;2023-02-01T01:17:04;5.20;99.90
22319;DHT22;11327;52.334;9.506;2023-02-01T01:20:25;5.30;99.90
22319;DHT22;11327;52.334;9.506;2023-02-01T01:23:46;5.30;99.90
22319;DHT22;11327;52.334;9.506;2023-02-01T01:27:07;5.20;99.90
22319;DHT22;11327;52.334;9.506;2023-02-01T01:30:28;5.20;99.90
22319;DHT22;11327;52.334;9.506;2023-02-01T01:33:54;5.20;99.90
22319;DHT22;11327;52.334;9.506;2023-02-01T01:37:14;5.30;99.90
22319;DHT22;11327;52.334;9.506;2023-02-01T01:40:35;5.30;99.90
22319;DHT22;11327;52.334;9.506;2023-02-01T01:44:01;5.30;99.90
22319;DHT22;11327;52.334;9.506;2023-02-01T01:47:24;5.30;99.90
22319;DHT22;11327;52.334;9.506;2023-02-01T01:51:04;5.20;99.90
22319;DHT22;11327;52.334;9.506;2023-02-01T01:54:24;5.30;99.90
22319;DHT22;11327;52.334;9.506;2023-02-01T01:57:50;5.30;99.90
22319;DHT22;11327;52.334;9.506;2023-02-01T02:01:10;5.30;99.90
22319;DHT22;11327;52.334;9.506;2023-02-01T02:04:32;5.30;99.90
22319;DHT22;11327;52.334;9.506;2023-02-01T02:07:57;5.30;99.90
22319;DHT22;11327;52.334;9.506;2023-02-01T02:11:18;5.30;99.90
22319;DHT22;11327;52.334;9.506;2023-02-01T02:14:39;5.20;99.90
22319;DHT22;11327;52.334;9.506;2023-02-01T02:18:10;5.30;99.90
22319;DHT22;11327;52.334;9.506;2023-02-01T02:21:52;5.30;99.90
22319;DHT22;11327;52.334;9.506;2023-02-01T02:25:47;5.30;99.90
22319;DHT22;11327;52.334;9.506;2023-02-01T02:33:00;5.30;99.90
22319;DHT22;11327;52.334;9.506;2023-02-01T02:36:26;5.30;99.90
22319;DHT22;11327;52.334;9.506;2023-02-01T02:40:04;5.40;99.90
22319;DHT22;11327;52.334;9.506;2023-02-01T02:47:21;5.50;99.90
22319;DHT22;11327;52.334;9.506;2023-02-01T02:54:30;5.40;99.90
22319;DHT22;11327;52.334;9.506;2023-02-01T02:58:08;5.30;99.90
22319;DHT22;11327;52.334;9.506;2023-02-01T03:01:49;5.30;99.90
22319;DHT22;11327;52.334;9.506;2023-02-01T03:05:37;5.30;99.90
22319;DHT22;11327;52.334;9.506;2023-02-01T03:09:02;5.30;99.90
22319;DHT22;11327;52.334;9.506;2023-02-01T03:12:24;5.30;99.90
22319;DHT22;11327;52.334;9.506;2023-02-01T03:19:46;5.40;99.90
22319;DHT22;11327;52.334;9.506;2023-02-01T03:23:06;5.40;99.90
22319;DHT22;11327;52.334;9.506;2023-02-01T03:26:29;5.50;99.90
22319;DHT22;11327;52.334;9.506;2023-02-01T03:33:23;5.50;99.90
22319;DHT22;11327;52.334;9.506;2023-02-01T03:36:56;5.50;99.90
22319;DHT22;11327;52.334;9.506;2023-02-01T03:40:18;5.50;99.90
22319;DHT22;11327;52.334;9.506;2023-02-01T03:43:58;5.50;99.90
22319;DHT22;11327;52.334;9.506;2023-02-01T03:47:28;5.50;99.90
22319;DHT22;11327;52.334;9.506;2023-02-01T03:50:52;5.50;99.90
22319;DHT22;11327;52.334;9.506;2023-02-01T03:54:14;5.40;99.90
22319;DHT22;11327;52.334;9.506;2023-02-01T03:57:39;5.50;99.90
22319;DHT22;11327;52.334;9.506;2023-02-01T04:01:00;5.50;99.90
22319;DHT22;11327;52.334;9.506;2023-02-01T04:04:21;5.50;99.90
22319;DHT22;11327;52.334;9.506;2023-02-01T04:07:42;5.50;99.90
22319;DHT22;11327;52.334;9.506;2023-02-01T04:11:03;5.50;99.90
22319;DHT22;11327;52.334;9.506;2023-02-01T04:14:24;5.50;99.90
22319;DHT22;11327;52.334;9.506;2023-02-01T04:17:45;5.40;99.90
22319;DHT22;11327;52.334;9.506;2023-02-01T04:21:05;5.50;99.90
22319;DHT22;11327;52.334;9.506;2023-02-01T04:24:26;5.50;99.90
22319;DHT22;11327;52.334;9.506;2023-02-01T04:27:47;5.50;99.90
22319;DHT22;11327;52.334;9.506;2023-02-01T04:31:08;5.40;99.90
22319;DHT22;11327;52.334;9.506;2023-02-01T04:34:28;5.50;99.90
22319;DHT22;11327;52.334;9.506;2023-02-01T04:37:49;5.50;99.90
22319;DHT22;11327;52.334;9.506;2023-02-01T04:41:10;5.50;99.90
22319;DHT22;11327;52.334;9.506;2023-02-01T04:44:31;5.60;99.90
22319;DHT22;11327;52.334;9.506;2023-02-01T04:47:51;5.60;99.90
22319;DHT22;11327;52.334;9.506;2023-02-01T04:51:12;5.50;99.90
22319;DHT22;11327;52.334;9.506;2023-02-01T04:54:33;5.30;99.90
22319;DHT22;11327;52.334;9.506;2023-02-01T04:57:54;5.30;99.90
22319;DHT22;11327;52.334;9.506;2023-02-01T05:01:15;5.20;99.90
22319;DHT22;11327;52.334;9.506;2023-02-01T05:04:36;5.10;99.90
22319;DHT22;11327;52.334;9.506;2023-02-01T05:07:57;5.10;99.90
22319;DHT22;11327;52.334;9.506;2023-02-01T05:11:18;5.20;99.90
22319;DHT22;11327;52.334;9.506;2023-02-01T05:14:57;5.20;99.90
22319;DHT22;11327;52.334;9.506;2023-02-01T05:18:17;5.10;99.90
22319;DHT22;11327;52.334;9.506;2023-02-01T05:21:38;5.10;99.90
22319;DHT22;11327;52.334;9.506;2023-02-01T05:24:59;5.00;99.90
22319;DHT22;11327;52.334;9.506;2023-02-01T05:28:20;5.00;99.90
22319;DHT22;11327;52.334;9.506;2023-02-01T05:31:40;5.00;99.90
22319;DHT22;11327;52.334;9.506;2023-02-01T05:35:01;5.00;99.90
22319;DHT22;11327;52.334;9.506;2023-02-01T05:38:22;5.10;99.90
22319;DHT22;11327;52.334;9.506;2023-02-01T05:41:43;5.10;99.90
22319;DHT22;11327;52.334;9.506;2023-02-01T05:45:04;5.10;99.90
22319;DHT22;11327;52.334;9.506;2023-02-01T05:48:27;5.10;99.90
22319;DHT22;11327;52.334;9.506;2023-02-01T05:51:48;5.20;99.90
22319;DHT22;11327;52.334;9.506;2023-02-01T05:55:09;5.20;99.90
22319;DHT22;11327;52.334;9.506;2023-02-01T05:58:29;5.20;99.90
22319;DHT22;11327;52.334;9.506;2023-02-01T06:01:50;5.20;99.90
22319;DHT22;11327;52.334;9.506;2023-02-01T06:05:11;5.20;99.90
22319;DHT22;11327;52.334;9.506;2023-02-01T06:08:32;5.20;99.90
22319;DHT22;11327;52.334;9.506;2023-02-01T06:11:53;5.20;99.90
22319;DHT22;11327;52.334;9.506;2023-02-01T06:15:14;5.10;99.90
22319;DHT22;11327;52.334;9.506;2023-02-01T06:18:38;5.20;99.90
22319;DHT22;11327;52.334;9.506;2023-02-01T06:21:59;5.20;99.90
22319;DHT22;11327;52.334;9.506;2023-02-01T06:25:19;5.20;99.90
22319;DHT22;11327;52.334;9.506;2023-02-01T06:28:41;5.20;99.90
22319;DHT22;11327;52.334;9.506;2023-02-01T06:32:02;5.20;99.90
22319;DHT22;11327;52.334;9.506;2023-02-01T06:35:23;5.30;99.90
22319;DHT22;11327;52.334;9.506;2023-02-01T06:38:44;5.10;99.90
22319;DHT22;11327;52.334;9.506;2023-02-01T06:42:05;5.00;99.90
22319;DHT22;11327;52.334;9.506;2023-02-01T06:45:26;5.00;99.90
22319;DHT22;11327;52.334;9.506;2023-02-01T06:48:46;5.00;99.90
22319;DHT22;11327;52.334;9.506;2023-02-01T06:52:07;5.00;99.90
22319;DHT22;11327;52.334;9.506;2023-02-01T06:55:28;5.10;99.90
22319;DHT22;11327;52.334;9.506;2023-02-01T06:58:49;5.10;99.90
22319;DHT22;11327;52.334;9.506;2023-02-01T07:02:11;5.00;99.90
22319;DHT22;11327;52.334;9.506;2023-02-01T07:05:32;5.10;99.90
22319;DHT22;11327;52.334;9.506;2023-02-01T07:08:52;5.10;99.90
22319;DHT22;11327;52.334;9.506;2023-02-01T07:12:15;5.10;99.90
22319;DHT22;11327;52.334;9.506;2023-02-01T07:15:36;5.00;99.90
22319;DHT22;11327;52.334;9.506;2023-02-01T07:18:56;5.00;99.90
22319;DHT22;11327;52.334;9.506;2023-02-01T07:22:17;5.10;99.90
22319;DHT22;11327;52.334;9.506;2023-02-01T07:25:38;5.10;99.90
22319;DHT22;11327;52.334;9.506;2023-02-01T07:28:59;5.20;99.90
22319;DHT22;11327;52.334;9.506;2023-02-01T07:32:20;5.20;99.90
22319;DHT22;11327;52.334;9.506;2023-02-01T07:35:41;5.30;99.90
22319;DHT22;11327;52.334;9.506;2023-02-01T07:39:03;5.20;99.90
22319;DHT22;11327;52.334;9.506;2023-02-01T07:42:24;5.30;99.90
22319;DHT22;11327;52.334;9.506;2023-02-01T07:45:50;5.30;99.90
22319;DHT22;11327;52.334;9.506;2023-02-01T07:49:09;5.30;99.90
22319;DHT22;11327;52.334;9.506;2023-02-01T07:52:30;5.40;99.90
22319;DHT22;11327;52.334;9.506;2023-02-01T07:55:50;5.40;99.90
22319;DHT22;11327;52.334;9.506;2023-02-01T07:59:11;5.40;99.90
22319;DHT22;11327;52.334;9.506;2023-02-01T08:02:32;5.50;99.90
22319;DHT22;11327;52.334;9.506;2023-02-01T08:05:56;5.50;99.90
22319;DHT22;11327;52.334;9.506;2023-02-01T08:09:16;5.50;99.90
22319;DHT22;11327;52.334;9.506;2023-02-01T08:12:37;5.50;99.90
22319;DHT22;11327;52.334;9.506;2023-02-01T08:15:59;5.60;99.90
22319;DHT22;11327;52.334;9.506;2023-02-01T08:19:20;5.60;99.90
22319;DHT22;11327;52.334;9.506;2023-02-01T08:22:41;5.70;99.90
22319;DHT22;11327;52.334;9.506;2023-02-01T08:29:38;5.70;99.90
22319;DHT22;11327;52.334;9.506;2023-02-01T08:32:59;5.80;99.90
22319;DHT22;11327;52.334;9.506;2023-02-01T08:36:22;5.90;99.90
22319;DHT22;11327;52.334;9.506;2023-02-01T08:39:43;5.90;99.90
22319;DHT22;11327;52.334;9.506;2023-02-01T08:43:05;6.00;99.90
22319;DHT22;11327;52.334;9.506;2023-02-01T08:46:25;6.00;99.90
22319;DHT22;11327;52.334;9.506;2023-02-01T08:49:46;6.00;99.90
22319;DHT22;11327;52.334;9.506;2023-02-01T08:53:07;6.10;99.90
22319;DHT22;11327;52.334;9.506;2023-02-01T08:56:28;6.10;99.90
22319;DHT22;11327;52.334;9.506;2023-02-01T08:59:48;6.10;99.90
22319;DHT22;11327;52.334;9.506;2023-02-01T09:03:10;6.20;99.90
22319;DHT22;11327;52.334;9.506;2023-02-01T09:06:31;6.20;99.90
22319;DHT22;11327;52.334;9.506;2023-02-01T09:09:52;6.30;99.90
22319;DHT22;11327;52.334;9.506;2023-02-01T09:13:14;6.40;99.90
22319;DHT22;11327;52.334;9.506;2023-02-01T09:16:35;6.40;99.90
22319;DHT22;11327;52.334;9.506;2023-02-01T09:19:56;6.40;99.90
22319;DHT22;11327;52.334;9.506;2023-02-01T09:23:16;6.50;99.90
22319;DHT22;11327;52.334;9.506;2023-02-01T09:26:37;6.40;99.90
22319;DHT22;11327;52.334;9.506;2023-02-01T09:29:58;6.40;99.90
22319;DHT22;11327;52.334;9.506;2023-02-01T09:33:19;6.40;99.90
22319;DHT22;11327;52.334;9.506;2023-02-01T09:36:41;6.40;99.90
22319;DHT22;11327;52.334;9.506;2023-02-01T09:40:03;6.40;99.90
22319;DHT22;11327;52.334;9.506;2023-02-01T09:43:46;6.50;99.90
22319;DHT22;11327;52.334;9.506;2023-02-01T09:47:14;6.50;99.90
22319;DHT22;11327;52.334;9.506;2023-02-01T09:50:39;6.50;99.90
22319;DHT22;11327;52.334;9.506;2023-02-01T09:57:40;6.50;99.90
22319;DHT22;11327;52.334;9.506;2023-02-01T10:01:03;6.50;99.90
22319;DHT22;11327;52.334;9.506;2023-02-01T10:04:25;6.50;99.90
22319;DHT22;11327;52.334;9.506;2023-02-01T10:19:10;6.70;99.90
22319;DHT22;11327;52.334;9.506;2023-02-01T10:26:12;6.70;99.90
22319;DHT22;11327;52.334;9.506;2023-02-01T10:29:32;6.70;99.90
22319;DHT22;11327;52.334;9.506;2023-02-01T10:33:07;6.70;99.90
22319;DHT22;11327;52.334;9.506;2023-02-01T10:36:23;6.80;99.90
22319;DHT22;11327;52.334;9.506;2023-02-01T10:39:41;6.70;99.90
22319;DHT22;11327;52.334;9.506;2023-02-01T10:43:02;6.70;99.90
22319;DHT22;11327;52.334;9.506;2023-02-01T10:46:23;6.80;99.90
22319;DHT22;11327;52.334;9.506;2023-02-01T10:49:52;6.80;99.90
22319;DHT22;11327;52.334;9.506;2023-02-01T10:53:18;6.80;99.90
22319;DHT22;11327;52.334;9.506;2023-02-01T10:56:39;6.80;99.90
22319;DHT22;11327;52.334;9.506;2023-02-01T11:00:03;6.80;99.90
22319;DHT22;11327;52.334;9.506;2023-02-01T11:03:45;6.80;99.90
22319;DHT22;11327;52.334;9.506;2023-02-01T11:10:41;6.80;99.90
22319;DHT22;11327;52.334;9.506;2023-02-01T11:14:13;6.80;99.90
22319;DHT22;11327;52.334;9.506;2023-02-01T11:17:38;6.80;99.90
22319;DHT22;11327;52.334;9.506;2023-02-01T11:20:59;6.80;99.90
22319;DHT22;11327;52.334;9.506;2023-02-01T11:24:26;6.80;99.90
22319;DHT22;11327;52.334;9.506;2023-02-01T11:27:53;6.80;99.90
22319;DHT22;11327;52.334;9.506;2023-02-01T11:31:14;6.90;99.90
22319;DHT22;11327;52.334;9.506;2023-02-01T11:34:45;6.90;99.90
22319;DHT22;11327;52.334;9.506;2023-02-01T11:38:29;6.90;99.90
22319;DHT22;11327;52.334;9.506;2023-02-01T11:42:03;6.80;99.90
22319;DHT22;11327;52.334;9.506;2023-02-01T11:48:48;6.80;99.90
22319;DHT22;11327;52.334;9.506;2023-02-01T11:59:49;7.10;99.90
22319;DHT22;11327;52.334;9.506;2023-02-01T12:07:05;7.30;99.90
22319;DHT22;11327;52.334;9.506;2023-02-01T12:10:28;7.40;99.90
22319;DHT22;11327;52.334;9.506;2023-02-01T12:17:49;7.40;99.90
22319;DHT22;11327;52.334;9.506;2023-02-01T12:35:38;6.60;99.90
22319;DHT22;11327;52.334;9.506;2023-02-01T12:39:23;6.50;99.90
22319;DHT22;11327;52.334;9.506;2023-02-01T12:42:58;6.40;99.90
22319;DHT22;11327;52.334;9.506;2023-02-01T12:46:27;6.30;99.90
22319;DHT22;11327;52.334;9.506;2023-02-01T12:53:19;6.30;99.90
22319;DHT22;11327;52.334;9.506;2023-02-01T12:56:59;6.40;99.90
22319;DHT22;11327;52.334;9.506;2023-02-01T13:00:27;6.40;99.90
22319;DHT22;11327;52.334;9.506;2023-02-01T13:04:05;6.40;99.90
22319;DHT22;11327;52.334;9.506;2023-02-01T13:07:37;6.40;99.90
22319;DHT22;11327;52.334;9.506;2023-02-01T13:11:03;6.40;99.90
22319;DHT22;11327;52.334;9.506;2023-02-01T13:17:55;6.20;99.90
22319;DHT22;11327;52.334;9.506;2023-02-01T13:21:30;6.10;99.90
22319;DHT22;11327;52.334;9.506;2023-02-01T13:24:59;6.10;99.90
22319;DHT22;11327;52.334;9.506;2023-02-01T13:28:27;6.10;99.90
22319;DHT22;11327;52.334;9.506;2023-02-01T13:35:54;5.90;99.90
22319;DHT22;11327;52.334;9.506;2023-02-01T13:39:28;5.80;99.90
22319;DHT22;11327;52.334;9.506;2023-02-01T13:42:52;5.70;99.90
22319;DHT22;11327;52.334;9.506;2023-02-01T13:46:14;4.50;99.90
22319;DHT22;11327;52.334;9.506;2023-02-01T13:49:38;3.80;99.90
22319;DHT22;11327;52.334;9.506;2023-02-01T13:56:41;3.40;99.90
22319;DHT22;11327;52.334;9.506;2023-02-01T14:03:46;3.00;99.90
22319;DHT22;11327;52.334;9.506;2023-02-01T14:07:16;2.90;99.90
22319;DHT22;11327;52.334;9.506;2023-02-01T14:17:39;2.70;99.90
22319;DHT22;11327;52.334;9.506;2023-02-01T14:21:27;2.70;99.90
22319;DHT22;11327;52.334;9.506;2023-02-01T14:24:55;2.50;99.90
22319;DHT22;11327;52.334;9.506;2023-02-01T14:28:25;2.50;99.90
22319;DHT22;11327;52.334;9.506;2023-02-01T14:31:53;2.40;99.90
22319;DHT22;11327;52.334;9.506;2023-02-01T14:35:24;2.40;99.90
22319;DHT22;11327;52.334;9.506;2023-02-01T14:38:47;2.50;99.90
22319;DHT22;11327;52.334;9.506;2023-02-01T14:49:06;2.70;99.90
22319;DHT22;11327;52.334;9.506;2023-02-01T14:52:33;2.70;99.90
22319;DHT22;11327;52.334;9.506;2023-02-01T14:56:09;2.80;99.90
22319;DHT22;11327;52.334;9.506;2023-02-01T14:59:32;2.80;99.90
22319;DHT22;11327;52.334;9.506;2023-02-01T15:03:11;2.90;99.90
22319;DHT22;11327;52.334;9.506;2023-02-01T15:09:58;3.10;99.90
22319;DHT22;11327;52.334;9.506;2023-02-01T15:13:21;3.20;99.90
22319;DHT22;11327;52.334;9.506;2023-02-01T15:16:43;3.20;99.90
22319;DHT22;11327;52.334;9.506;2023-02-01T15:23:36;3.50;99.90
22319;DHT22;11327;52.334;9.506;2023-02-01T15:27:03;3.40;99.90
22319;DHT22;11327;52.334;9.506;2023-02-01T15:30:29;3.40;99.90
22319;DHT22;11327;52.334;9.506;2023-02-01T15:33:57;3.50;99.90
22319;DHT22;11327;52.334;9.506;2023-02-01T15:37:20;3.50;99.90
22319;DHT22;11327;52.334;9.506;2023-02-01T15:41:02;3.50;99.90
22319;DHT22;11327;52.334;9.506;2023-02-01T15:44:37;3.50;99.90
22319;DHT22;11327;52.334;9.506;2023-02-01T15:47:57;3.50;99.90
22319;DHT22;11327;52.334;9.506;2023-02-01T15:51:22;3.60;99.90
22319;DHT22;11327;52.334;9.506;2023-02-01T15:54:49;3.60;99.90
22319;DHT22;11327;52.334;9.506;2023-02-01T15:58:20;3.60;99.90
22319;DHT22;11327;52.334;9.506;2023-02-01T16:01:41;3.70;99.90
22319;DHT22;11327;52.334;9.506;2023-02-01T16:05:03;3.70;99.90
22319;DHT22;11327;52.334;9.506;2023-02-01T16:08:27;3.80;99.90
22319;DHT22;11327;52.334;9.506;2023-02-01T16:11:59;3.80;99.90
22319;DHT22;11327;52.334;9.506;2023-02-01T16:15:20;3.90;99.90
22319;DHT22;11327;52.334;9.506;2023-02-01T16:18:41;4.00;99.90
22319;DHT22;11327;52.334;9.506;2023-02-01T16:22:02;4.00;99.90
22319;DHT22;11327;52.334;9.506;2023-02-01T16:25:23;4.00;99.90
22319;DHT22;11327;52.334;9.506;2023-02-01T16:28:44;4.10;99.90
22319;DHT22;11327;52.334;9.506;2023-02-01T16:32:05;4.20;99.90
22319;DHT22;11327;52.334;9.506;2023-02-01T16:35:28;4.20;99.90
22319;DHT22;11327;52.334;9.506;2023-02-01T16:38:51;4.30;99.90
22319;DHT22;11327;52.334;9.506;2023-02-01T16:42:14;4.30;99.90
22319;DHT22;11327;52.334;9.506;2023-02-01T16:49:52;4.40;99.90
22319;DHT22;11327;52.334;9.506;2023-02-01T16:53:14;4.40;99.90
22319;DHT22;11327;52.334;9.506;2023-02-01T16:56:37;4.50;99.90
22319;DHT22;11327;52.334;9.506;2023-02-01T17:00:02;4.50;99.90
22319;DHT22;11327;52.334;9.506;2023-02-01T17:03:24;4.50;99.90
22319;DHT22;11327;52.334;9.506;2023-02-01T17:06:45;4.50;99.90
22319;DHT22;11327;52.334;9.506;2023-02-01T17:10:25;4.50;99.90
22319;DHT22;11327;52.334;9.506;2023-02-01T17:13:47;4.50;99.90
22319;DHT22;11327;52.334;9.506;2023-02-01T17:17:09;4.60;99.90
22319;DHT22;11327;52.334;9.506;2023-02-01T17:20:31;4.50;99.90
22319;DHT22;11327;52.334;9.506;2023-02-01T17:23:52;4.50;99.90
22319;DHT22;11327;52.334;9.506;2023-02-01T17:27:13;4.50;99.90
22319;DHT22;11327;52.334;9.506;2023-02-01T17:30:35;4.60;99.90
22319;DHT22;11327;52.334;9.506;2023-02-01T17:33:57;4.70;99.90
22319;DHT22;11327;52.334;9.506;2023-02-01T17:37:22;4.70;99.90
22319;DHT22;11327;52.334;9.506;2023-02-01T17:40:42;4.70;99.90
22319;DHT22;11327;52.334;9.506;2023-02-01T17:44:03;4.70;99.90
22319;DHT22;11327;52.334;9.506;2023-02-01T17:47:24;4.70;99.90
22319;DHT22;11327;52.334;9.506;2023-02-01T17:50:46;4.80;99.90
22319;DHT22;11327;52.334;9.506;2023-02-01T17:54:12;4.80;99.90
22319;DHT22;11327;52.334;9.506;2023-02-01T17:57:33;4.90;99.90
22319;DHT22;11327;52.334;9.506;2023-02-01T18:00:53;5.00;99.90
22319;DHT22;11327;52.334;9.506;2023-02-01T18:04:16;5.00;99.90
22319;DHT22;11327;52.334;9.506;2023-02-01T18:07:38;5.10;99.90
22319;DHT22;11327;52.334;9.506;2023-02-01T18:11:00;5.10;99.90
22319;DHT22;11327;52.334;9.506;2023-02-01T18:14:21;5.00;99.90
22319;DHT22;11327;52.334;9.506;2023-02-01T18:17:42;5.10;99.90
22319;DHT22;11327;52.334;9.506;2023-02-01T18:21:03;5.10;99.90
22319;DHT22;11327;52.334;9.506;2023-02-01T18:24:24;5.10;99.90
22319;DHT22;11327;52.334;9.506;2023-02-01T18:27:48;5.00;99.90
22319;DHT22;11327;52.334;9.506;2023-02-01T18:31:26;4.90;99.90
22319;DHT22;11327;52.334;9.506;2023-02-01T18:34:49;4.90;99.90
22319;DHT22;11327;52.334;9.506;2023-02-01T18:38:10;4.90;99.90
22319;DHT22;11327;52.334;9.506;2023-02-01T18:41:30;5.00;99.90
22319;DHT22;11327;52.334;9.506;2023-02-01T18:44:51;5.10;99.90
22319;DHT22;11327;52.334;9.506;2023-02-01T18:48:14;5.10;99.90
22319;DHT22;11327;52.334;9.506;2023-02-01T18:51:35;5.20;99.90
22319;DHT22;11327;52.334;9.506;2023-02-01T18:54:55;5.30;99.90
22319;DHT22;11327;52.334;9.506;2023-02-01T18:58:16;5.30;99.90
22319;DHT22;11327;52.334;9.506;2023-02-01T19:01:37;5.40;99.90
22319;DHT22;11327;52.334;9.506;2023-02-01T19:04:58;5.30;99.90
22319;DHT22;11327;52.334;9.506;2023-02-01T19:08:19;5.30;99.90
22319;DHT22;11327;52.334;9.506;2023-02-01T19:11:40;5.30;99.90
22319;DHT22;11327;52.334;9.506;2023-02-01T19:15:01;5.30;99.90
22319;DHT22;11327;52.334;9.506;2023-02-01T19:18:22;5.40;99.90
22319;DHT22;11327;52.334;9.506;2023-02-01T19:21:43;5.30;99.90
22319;DHT22;11327;52.334;9.506;2023-02-01T19:25:04;5.40;99.90
22319;DHT22;11327;52.334;9.506;2023-02-01T19:28:25;5.40;99.90
22319;DHT22;11327;52.334;9.506;2023-02-01T19:31:46;5.40;99.90
22319;DHT22;11327;52.334;9.506;2023-02-01T19:35:08;5.40;99.90
22319;DHT22;11327;52.334;9.506;2023-02-01T19:38:29;5.40;99.90
22319;DHT22;11327;52.334;9.506;2023-02-01T19:41:50;5.40;99.90
22319;DHT22;11327;52.334;9.506;2023-02-01T19:45:13;5.40;99.90
22319;DHT22;11327;52.334;9.506;2023-02-01T19:48:34;5.40;99.90
22319;DHT22;11327;52.334;9.506;2023-02-01T19:51:56;5.40;99.90
22319;DHT22;11327;52.334;9.506;2023-02-01T19:55:16;5.30;99.90
22319;DHT22;11327;52.334;9.506;2023-02-01T19:58:37;5.30;99.90
22319;DHT22;11327;52.334;9.506;2023-02-01T20:01:58;5.30;99.90
22319;DHT22;11327;52.334;9.506;2023-02-01T20:05:19;5.30;99.90
22319;DHT22;11327;52.334;9.506;2023-02-01T20:08:39;5.30;99.90
22319;DHT22;11327;52.334;9.506;2023-02-01T20:12:00;5.30;99.90
22319;DHT22;11327;52.334;9.506;2023-02-01T20:15:21;5.30;99.90
22319;DHT22;11327;52.334;9.506;2023-02-01T20:18:43;5.30;99.90
22319;DHT22;11327;52.334;9.506;2023-02-01T20:22:04;5.40;99.90
22319;DHT22;11327;52.334;9.506;2023-02-01T20:25:25;5.40;99.90
22319;DHT22;11327;52.334;9.506;2023-02-01T20:28:46;5.40;99.90
22319;DHT22;11327;52.334;9.506;2023-02-01T20:32:07;5.30;99.90
22319;DHT22;11327;52.334;9.506;2023-02-01T20:35:28;5.30;99.90
22319;DHT22;11327;52.334;9.506;2023-02-01T20:38:48;5.30;99.90
22319;DHT22;11327;52.334;9.506;2023-02-01T20:42:09;5.30;99.90
22319;DHT22;11327;52.334;9.506;2023-02-01T20:45:30;5.30;99.90
22319;DHT22;11327;52.334;9.506;2023-02-01T20:48:51;5.30;99.90
22319;DHT22;11327;52.334;9.506;2023-02-01T20:52:11;5.30;99.90
22319;DHT22;11327;52.334;9.506;2023-02-01T20:55:32;5.30;99.90
22319;DHT22;11327;52.334;9.506;2023-02-01T20:58:53;5.30;99.90
22319;DHT22;11327;52.334;9.506;2023-02-01T21:02:15;5.40;99.90
22319;DHT22;11327;52.334;9.506;2023-02-01T21:05:36;5.40;99.90
22319;DHT22;11327;52.334;9.506;2023-02-01T21:09:00;5.40;99.90
22319;DHT22;11327;52.334;9.506;2023-02-01T21:12:21;5.40;99.90
22319;DHT22;11327;52.334;9.506;2023-02-01T21:15:42;5.40;99.90
22319;DHT22;11327;52.334;9.506;2023-02-01T21:19:03;5.40;99.90
22319;DHT22;11327;52.334;9.506;2023-02-01T21:22:25;5.30;99.90
22319;DHT22;11327;52.334;9.506;2023-02-01T21:25:46;5.40;99.90
22319;DHT22;11327;52.334;9.506;2023-02-01T21:29:09;5.40;99.90
22319;DHT22;11327;52.334;9.506;2023-02-01T21:32:30;5.40;99.90
22319;DHT22;11327;52.334;9.506;2023-02-01T21:35:51;5.30;99.90
22319;DHT22;11327;52.334;9.506;2023-02-01T21:39:12;5.40;99.90
22319;DHT22;11327;52.334;9.506;2023-02-01T21:42:32;5.50;99.90
22319;DHT22;11327;52.334;9.506;2023-02-01T21:45:53;5.50;99.90
22319;DHT22;11327;52.334;9.506;2023-02-01T21:49:14;5.40;99.90
22319;DHT22;11327;52.334;9.506;2023-02-01T21:52:35;5.40;99.90
22319;DHT22;11327;52.334;9.506;2023-02-01T21:55:57;5.40;99.90
22319;DHT22;11327;52.334;9.506;2023-02-01T21:59:18;5.40;99.90
22319;DHT22;11327;52.334;9.506;2023-02-01T22:02:39;5.40;99.90
22319;DHT22;11327;52.334;9.506;2023-02-01T22:06:00;5.40;99.90
22319;DHT22;11327;52.334;9.506;2023-02-01T22:09:22;5.50;99.90
22319;DHT22;11327;52.334;9.506;2023-02-01T22:12:43;5.50;99.90
22319;DHT22;11327;52.334;9.506;2023-02-01T22:16:04;5.50;99.90
22319;DHT22;11327;52.334;9.506;2023-02-01T22:19:25;5.50;99.90
22319;DHT22;11327;52.334;9.506;2023-02-01T22:22:47;5.40;99.90
22319;DHT22;11327;52.334;9.506;2023-02-01T22:26:10;5.30;99.90
22319;DHT22;11327;52.334;9.506;2023-02-01T22:29:31;5.30;99.90
22319;DHT22;11327;52.334;9.506;2023-02-01T22:32:54;5.30;99.90
22319;DHT22;11327;52.334;9.506;2023-02-01T22:36:15;5.30;99.90
22319;DHT22;11327;52.334;9.506;2023-02-01T22:39:36;5.20;99.90
22319;DHT22;11327;52.334;9.506;2023-02-01T22:42:57;5.30;99.90
22319;DHT22;11327;52.334;9.506;2023-02-01T22:46:20;5.20;99.90
22319;DHT22;11327;52.334;9.506;2023-02-01T22:49:42;5.20;99.90
22319;DHT22;11327;52.334;9.506;2023-02-01T22:53:02;5.20;99.90
22319;DHT22;11327;52.334;9.506;2023-02-01T22:56:32;5.20;99.90
22319;DHT22;11327;52.334;9.506;2023-02-01T22:59:53;5.20;99.90
22319;DHT22;11327;52.334;9.506;2023-02-01T23:03:13;5.10;99.90
22319;DHT22;11327;52.334;9.506;2023-02-01T23:06:34;5.10;99.90
22319;DHT22;11327;52.334;9.506;2023-02-01T23:09:55;5.10;99.90
22319;DHT22;11327;52.334;9.506;2023-02-01T23:13:16;5.10;99.90
22319;DHT22;11327;52.334;9.506;2023-02-01T23:16:37;5.10;99.90
22319;DHT22;11327;52.334;9.506;2023-02-01T23:19:58;5.10;99.90
22319;DHT22;11327;52.334;9.506;2023-02-01T23:23:19;5.20;99.90
22319;DHT22;11327;52.334;9.506;2023-02-01T23:26:40;5.20;99.90
22319;DHT22;11327;52.334;9.506;2023-02-01T23:30:02;5.20;99.90
22319;DHT22;11327;52.334;9.506;2023-02-01T23:33:25;5.20;99.90
22319;DHT22;11327;52.334;9.506;2023-02-01T23:36:47;5.20;99.90
22319;DHT22;11327;52.334;9.506;2023-02-01T23:40:08;5.10;99.90
22319;DHT22;11327;52.334;9.506;2023-02-01T23:43:30;5.10;99.90
22319;DHT22;11327;52.334;9.506;2023-02-01T23:47:10;5.10;99.90